createdAt,value
2017-11-13T00:00:48.332Z,0
2017-11-13T00:01:48.326Z,0
2017-11-13T00:02:47.998Z,0
2017-11-13T00:03:47.980Z,0
2017-11-13T00:04:47.966Z,0
2017-11-13T00:05:47.961Z,0
2017-11-13T00:06:48.291Z,0
2017-11-13T00:07:48.274Z,0
2017-11-13T00:08:48.254Z,0
2017-11-13T00:09:48.344Z,0
2017-11-13T00:10:48.239Z,0
2017-11-13T00:11:47.901Z,0
2017-11-13T00:12:48.216Z,0
2017-11-13T00:13:48.205Z,0
2017-11-13T00:14:47.545Z,0
2017-11-13T00:15:47.968Z,0
2017-11-13T00:16:47.957Z,0
2017-11-13T00:17:48.166Z,0
2017-11-13T00:18:47.833Z,0
2017-11-13T00:19:48.150Z,0
2017-11-13T00:20:47.811Z,0
2017-11-13T00:21:48.124Z,0
2017-11-13T00:22:48.117Z,0
2017-11-13T00:23:48.125Z,0
2017-11-13T00:24:47.774Z,0
2017-11-13T00:25:48.094Z,0
2017-11-13T00:26:47.857Z,0
2017-11-13T00:27:47.745Z,0
2017-11-13T00:28:47.420Z,0
2017-11-13T00:29:47.726Z,0
2017-11-13T00:30:48.045Z,0
2017-11-13T00:31:47.717Z,0
2017-11-13T00:32:47.383Z,0
2017-11-13T00:33:48.043Z,0
2017-11-13T00:34:47.780Z,0
2017-11-13T00:35:47.992Z,0
2017-11-13T00:36:47.660Z,0
2017-11-13T00:37:47.656Z,0
2017-11-13T00:38:47.966Z,0
2017-11-13T00:39:47.740Z,0
2017-11-13T00:40:47.628Z,0
2017-11-13T00:41:47.642Z,0
2017-11-13T00:42:47.602Z,0
2017-11-13T00:43:47.693Z,0
2017-11-13T00:44:47.951Z,0
2017-11-13T00:45:47.900Z,0
2017-11-13T00:46:47.895Z,0
2017-11-13T00:47:47.551Z,0
2017-11-13T00:48:47.222Z,0
2017-11-13T00:49:47.964Z,0
2017-11-13T00:50:47.850Z,0
2017-11-13T00:51:47.849Z,0
2017-11-13T00:52:47.503Z,0
2017-11-13T00:53:47.493Z,0
2017-11-13T00:54:47.812Z,0
2017-11-13T00:55:47.807Z,0
2017-11-13T00:56:47.564Z,0
2017-11-13T00:57:47.793Z,0
2017-11-13T00:58:47.126Z,0
2017-11-13T00:59:47.439Z,0
2017-11-13T01:00:47.761Z,0
2017-11-13T01:01:47.418Z,0
2017-11-13T01:02:47.741Z,0
2017-11-13T01:03:47.410Z,0
2017-11-13T01:04:47.758Z,0
2017-11-13T01:05:47.706Z,0
2017-11-13T01:06:47.374Z,0
2017-11-13T01:07:47.362Z,0
2017-11-13T01:08:47.676Z,0
2017-11-13T01:09:47.670Z,0
2017-11-13T01:10:47.659Z,0
2017-11-13T01:11:47.335Z,0
2017-11-13T01:12:47.637Z,0
2017-11-13T01:13:47.307Z,0
2017-11-13T01:14:47.301Z,0
2017-11-13T01:15:47.286Z,0
2017-11-13T01:16:47.597Z,0
2017-11-13T01:17:47.369Z,0
2017-11-13T01:18:47.255Z,0
2017-11-13T01:19:47.574Z,0
2017-11-13T01:20:47.562Z,0
2017-11-13T01:21:47.228Z,0
2017-11-13T01:22:47.649Z,0
2017-11-13T01:23:47.206Z,0
2017-11-13T01:24:47.530Z,0
2017-11-13T01:25:47.300Z,0
2017-11-13T01:26:47.504Z,0
2017-11-13T01:27:47.499Z,0
2017-11-13T01:28:46.834Z,0
2017-11-13T01:29:47.250Z,0
2017-11-13T01:30:47.142Z,0
2017-11-13T01:31:47.126Z,0
2017-11-13T01:32:47.456Z,0
2017-11-13T01:33:47.437Z,0
2017-11-13T01:34:47.113Z,0
2017-11-13T01:35:47.089Z,0
2017-11-13T01:36:47.416Z,0
2017-11-13T01:37:46.742Z,0
2017-11-13T01:38:47.381Z,0
2017-11-13T01:39:47.488Z,0
2017-11-13T01:40:47.364Z,0
2017-11-13T01:41:47.051Z,0
2017-11-13T01:42:47.024Z,0
2017-11-13T01:43:47.547Z,0
2017-11-13T01:44:47.331Z,0
2017-11-13T01:45:47.315Z,0
2017-11-13T01:46:46.985Z,0
2017-11-13T01:47:47.399Z,0
2017-11-13T01:48:47.304Z,0
2017-11-13T01:49:46.954Z,0
2017-11-13T01:50:47.374Z,0
2017-11-13T01:51:46.935Z,0
2017-11-13T01:52:46.932Z,0
2017-11-13T01:53:46.588Z,0
2017-11-13T01:54:46.909Z,0
2017-11-13T01:55:47.224Z,0
2017-11-13T01:56:47.220Z,0
2017-11-13T01:57:46.884Z,0
2017-11-13T01:58:47.193Z,0
2017-11-13T01:59:47.181Z,0
2017-11-13T02:00:46.846Z,0
2017-11-13T02:01:47.262Z,0
2017-11-13T02:02:46.836Z,0
2017-11-13T02:03:46.831Z,0
2017-11-13T02:04:47.142Z,0
2017-11-13T02:05:46.806Z,0
2017-11-13T02:06:46.801Z,0
2017-11-13T02:07:47.109Z,0
2017-11-13T02:08:47.095Z,0
2017-11-13T02:09:46.884Z,0
2017-11-13T02:10:46.751Z,0
2017-11-13T02:11:46.751Z,0
2017-11-13T02:12:46.746Z,0
2017-11-13T02:13:47.064Z,0
2017-11-13T02:14:47.056Z,0
2017-11-13T02:15:47.029Z,0
2017-11-13T02:16:47.030Z,0
2017-11-13T02:17:47.024Z,0
2017-11-13T02:18:47.018Z,0
2017-11-13T02:19:47.107Z,0
2017-11-13T02:20:46.433Z,0
2017-11-13T02:21:47.000Z,0
2017-11-13T02:22:46.963Z,0
2017-11-13T02:23:46.955Z,0
2017-11-13T02:24:46.638Z,0
2017-11-13T02:25:46.939Z,0
2017-11-13T02:26:46.373Z,0
2017-11-13T02:27:46.919Z,0
2017-11-13T02:28:46.913Z,0
2017-11-13T02:29:46.243Z,0
2017-11-13T02:30:46.895Z,0
2017-11-13T02:31:46.872Z,0
2017-11-13T02:32:46.874Z,0
2017-11-13T02:33:46.534Z,0
2017-11-13T02:34:46.843Z,0
2017-11-13T02:35:46.522Z,0
2017-11-13T02:36:46.825Z,0
2017-11-13T02:37:46.831Z,0
2017-11-13T02:38:46.927Z,0
2017-11-13T02:39:46.804Z,0
2017-11-13T02:40:46.135Z,0
2017-11-13T02:41:46.878Z,0
2017-11-13T02:42:46.772Z,0
2017-11-13T02:43:46.555Z,0
2017-11-13T02:44:46.755Z,0
2017-11-13T02:45:46.415Z,0
2017-11-13T02:46:46.729Z,0
2017-11-13T02:47:46.401Z,0
2017-11-13T02:48:46.384Z,0
2017-11-13T02:49:46.400Z,0
2017-11-13T02:50:46.692Z,0
2017-11-13T02:51:46.458Z,0
2017-11-13T02:52:46.792Z,0
2017-11-13T02:53:46.686Z,0
2017-11-13T02:54:45.999Z,0
2017-11-13T02:55:46.640Z,0
2017-11-13T02:56:46.642Z,0
2017-11-13T02:57:46.422Z,0
2017-11-13T02:58:46.674Z,0
2017-11-13T02:59:46.376Z,0
2017-11-13T03:00:46.608Z,0
2017-11-13T03:01:46.265Z,0
2017-11-13T03:02:46.354Z,0
2017-11-13T03:03:46.244Z,0
2017-11-13T03:04:46.328Z,0
2017-11-13T03:05:46.232Z,0
2017-11-13T03:06:46.636Z,0
2017-11-13T03:07:46.198Z,0
2017-11-13T03:08:45.859Z,0
2017-11-13T03:09:46.507Z,0
2017-11-13T03:10:46.491Z,0
2017-11-13T03:11:46.487Z,0
2017-11-13T03:12:46.146Z,0
2017-11-13T03:13:46.561Z,0
2017-11-13T03:14:46.451Z,0
2017-11-13T03:15:46.126Z,0
2017-11-13T03:16:46.110Z,0
2017-11-13T03:17:46.097Z,0
2017-11-13T03:18:46.424Z,0
2017-11-13T03:19:46.082Z,0
2017-11-13T03:20:46.071Z,0
2017-11-13T03:21:46.382Z,0
2017-11-13T03:22:46.054Z,0
2017-11-13T03:23:46.361Z,0
2017-11-13T03:24:45.717Z,0
2017-11-13T03:25:46.020Z,0
2017-11-13T03:26:46.006Z,0
2017-11-13T03:27:46.001Z,0
2017-11-13T03:28:45.990Z,0
2017-11-13T03:29:46.004Z,0
2017-11-13T03:30:46.326Z,0
2017-11-13T03:31:46.309Z,0
2017-11-13T03:32:45.948Z,0
2017-11-13T03:33:46.274Z,0
2017-11-13T03:34:46.261Z,0
2017-11-13T03:35:45.924Z,0
2017-11-13T03:36:46.243Z,0
2017-11-13T03:37:46.228Z,0
2017-11-13T03:38:45.563Z,0
2017-11-13T03:39:46.213Z,0
2017-11-13T03:40:46.296Z,0
2017-11-13T03:41:45.857Z,0
2017-11-13T03:42:46.181Z,0
2017-11-13T03:43:46.279Z,0
2017-11-13T03:44:45.510Z,0
2017-11-13T03:45:46.158Z,0
2017-11-13T03:46:46.139Z,0
2017-11-13T03:47:46.130Z,0
2017-11-13T03:48:46.123Z,0
2017-11-13T03:49:46.144Z,0
2017-11-13T03:50:46.201Z,0
2017-11-13T03:51:46.092Z,0
2017-11-13T03:52:46.175Z,0
2017-11-13T03:53:45.744Z,0
2017-11-13T03:54:46.156Z,0
2017-11-13T03:55:46.047Z,0
2017-11-13T03:56:45.715Z,0
2017-11-13T03:57:45.703Z,0
2017-11-13T03:58:45.701Z,0
2017-11-13T03:59:45.688Z,0
2017-11-13T04:00:46.004Z,0
2017-11-13T04:01:45.988Z,0
2017-11-13T04:02:45.975Z,0
2017-11-13T04:03:45.968Z,0
2017-11-13T04:04:45.964Z,0
2017-11-13T04:05:45.950Z,0
2017-11-13T04:06:46.034Z,0
2017-11-13T04:07:45.924Z,0
2017-11-13T04:08:45.684Z,0
2017-11-13T04:09:45.254Z,0
2017-11-13T04:10:45.904Z,0
2017-11-13T04:11:45.567Z,0
2017-11-13T04:12:45.559Z,0
2017-11-13T04:13:45.966Z,0
2017-11-13T04:14:45.538Z,0
2017-11-13T04:15:45.537Z,0
2017-11-13T04:16:45.847Z,0
2017-11-13T04:17:45.503Z,0
2017-11-13T04:18:45.165Z,0
2017-11-13T04:19:45.904Z,0
2017-11-13T04:20:45.478Z,0
2017-11-13T04:21:45.459Z,0
2017-11-13T04:22:45.777Z,0
2017-11-13T04:23:45.868Z,0
2017-11-13T04:24:45.762Z,0
2017-11-13T04:25:45.744Z,0
2017-11-13T04:26:45.739Z,0
2017-11-13T04:27:45.737Z,0
2017-11-13T04:28:45.727Z,0
2017-11-13T04:29:45.713Z,0
2017-11-13T04:30:45.372Z,0
2017-11-13T04:31:45.036Z,0
2017-11-13T04:32:45.354Z,0
2017-11-13T04:33:45.349Z,0
2017-11-13T04:34:45.367Z,0
2017-11-13T04:35:45.358Z,0
2017-11-13T04:36:45.644Z,0
2017-11-13T04:37:45.628Z,0
2017-11-13T04:38:45.299Z,0
2017-11-13T04:39:45.390Z,0
2017-11-13T04:40:45.602Z,0
2017-11-13T04:41:45.257Z,0
2017-11-13T04:42:45.577Z,0
2017-11-13T04:43:45.244Z,0
2017-11-13T04:44:45.240Z,0
2017-11-13T04:45:45.683Z,0
2017-11-13T04:46:45.542Z,0
2017-11-13T04:47:45.629Z,0
2017-11-13T04:48:45.622Z,0
2017-11-13T04:49:45.182Z,0
2017-11-13T04:50:45.603Z,0
2017-11-13T04:51:45.491Z,0
2017-11-13T04:52:44.600Z,0
2017-11-13T04:53:45.470Z,0
2017-11-13T04:54:45.146Z,0
2017-11-13T04:55:45.461Z,0
2017-11-13T04:56:45.117Z,0
2017-11-13T04:57:45.434Z,0
2017-11-13T04:58:45.452Z,0
2017-11-13T04:59:45.414Z,0
2017-11-13T05:00:45.405Z,0
2017-11-13T05:01:45.411Z,0
2017-11-13T05:02:45.386Z,0
2017-11-13T05:03:44.721Z,0
2017-11-13T05:04:45.363Z,0
2017-11-13T05:05:45.036Z,0
2017-11-13T05:06:45.447Z,0
2017-11-13T05:07:45.020Z,0
2017-11-13T05:08:44.998Z,0
2017-11-13T05:09:44.988Z,0
2017-11-13T05:10:44.974Z,0
2017-11-13T05:11:44.638Z,0
2017-11-13T05:12:45.379Z,0
2017-11-13T05:13:45.290Z,0
2017-11-13T05:14:44.934Z,0
2017-11-13T05:15:45.255Z,0
2017-11-13T05:16:45.276Z,0
2017-11-13T05:17:45.235Z,0
2017-11-13T05:18:45.419Z,0
2017-11-13T05:19:44.889Z,0
2017-11-13T05:20:45.204Z,0
2017-11-13T05:21:44.865Z,0
2017-11-13T05:22:45.291Z,0
2017-11-13T05:23:44.849Z,0
2017-11-13T05:24:44.937Z,0
2017-11-13T05:25:45.154Z,0
2017-11-13T05:26:45.151Z,0
2017-11-13T05:27:44.912Z,0
2017-11-13T05:28:44.800Z,0
2017-11-13T05:29:45.116Z,0
2017-11-13T05:30:45.112Z,0
2017-11-13T05:31:45.202Z,0
2017-11-13T05:32:45.188Z,0
2017-11-13T05:33:45.083Z,0
2017-11-13T05:34:45.066Z,0
2017-11-13T05:35:45.067Z,0
2017-11-13T05:36:44.718Z,0
2017-11-13T05:37:44.380Z,0
2017-11-13T05:38:45.026Z,0
2017-11-13T05:39:45.025Z,0
2017-11-13T05:40:44.681Z,0
2017-11-13T05:41:45.107Z,0
2017-11-13T05:42:44.986Z,0
2017-11-13T05:43:44.972Z,0
2017-11-13T05:44:44.635Z,0
2017-11-13T05:45:44.953Z,0
2017-11-13T05:46:44.953Z,0
2017-11-13T05:47:44.933Z,0
2017-11-13T05:48:44.609Z,0
2017-11-13T05:49:44.693Z,0
2017-11-13T05:50:44.581Z,0
2017-11-13T05:51:44.893Z,0
2017-11-13T05:52:44.560Z,0
2017-11-13T05:53:44.556Z,0
2017-11-13T05:54:44.864Z,0
2017-11-13T05:55:44.723Z,0
2017-11-13T05:56:44.519Z,0
2017-11-13T05:57:44.835Z,0
2017-11-13T05:58:44.823Z,0
2017-11-13T05:59:44.583Z,0
2017-11-13T06:00:44.571Z,0
2017-11-13T06:01:44.787Z,0
2017-11-13T06:02:44.778Z,0
2017-11-13T06:03:44.781Z,0
2017-11-13T06:04:44.102Z,0
2017-11-13T06:05:44.742Z,0
2017-11-13T06:06:44.833Z,0
2017-11-13T06:07:44.076Z,0
2017-11-13T06:08:44.724Z,0
2017-11-13T06:09:44.706Z,0
2017-11-13T06:10:44.369Z,4
2017-11-13T06:11:44.787Z,4
2017-11-13T06:12:44.780Z,4
2017-11-13T06:13:44.346Z,0
2017-11-13T06:14:44.352Z,4
2017-11-13T06:15:44.325Z,4
2017-11-13T06:16:44.411Z,4
2017-11-13T06:17:44.301Z,4
2017-11-13T06:18:44.627Z,4
2017-11-13T06:19:44.706Z,4
2017-11-13T06:20:44.268Z,8
2017-11-13T06:21:43.939Z,8
2017-11-13T06:22:44.252Z,8
2017-11-13T06:23:44.258Z,8
2017-11-13T06:24:43.910Z,12
2017-11-13T06:25:44.219Z,16
2017-11-13T06:26:44.539Z,12
2017-11-13T06:27:44.201Z,16
2017-11-13T06:28:44.289Z,16
2017-11-13T06:29:44.503Z,16
2017-11-13T06:30:43.847Z,16
2017-11-13T06:31:43.509Z,20
2017-11-13T06:32:44.151Z,20
2017-11-13T06:33:44.466Z,20
2017-11-13T06:34:44.458Z,20
2017-11-13T06:35:43.795Z,20
2017-11-13T06:36:44.113Z,20
2017-11-13T06:37:44.108Z,20
2017-11-13T06:38:44.474Z,24
2017-11-13T06:39:44.078Z,24
2017-11-13T06:40:44.396Z,24
2017-11-13T06:41:44.163Z,24
2017-11-13T06:42:44.147Z,20
2017-11-13T06:43:43.811Z,24
2017-11-13T06:44:44.360Z,28
2017-11-13T06:45:44.359Z,28
2017-11-13T06:46:44.334Z,28
2017-11-13T06:47:44.524Z,32
2017-11-13T06:48:44.317Z,32
2017-11-13T06:49:43.982Z,32
2017-11-13T06:50:44.296Z,32
2017-11-13T06:51:43.635Z,32
2017-11-13T06:52:44.376Z,28
2017-11-13T06:53:44.262Z,24
2017-11-13T06:54:44.264Z,24
2017-11-13T06:55:44.245Z,20
2017-11-13T06:56:43.911Z,24
2017-11-13T06:57:44.001Z,20
2017-11-13T06:58:43.892Z,20
2017-11-13T06:59:43.553Z,20
2017-11-13T07:00:44.304Z,20
2017-11-13T07:01:43.957Z,20
2017-11-13T07:02:43.836Z,20
2017-11-13T07:03:43.829Z,20
2017-11-13T07:04:44.176Z,24
2017-11-13T07:05:44.137Z,24
2017-11-13T07:06:44.128Z,24
2017-11-13T07:07:44.113Z,28
2017-11-13T07:08:43.878Z,28
2017-11-13T07:09:43.770Z,28
2017-11-13T07:10:44.184Z,28
2017-11-13T07:11:43.757Z,32
2017-11-13T07:12:43.744Z,32
2017-11-13T07:13:44.062Z,36
2017-11-13T07:14:44.043Z,40
2017-11-13T07:15:44.133Z,36
2017-11-13T07:16:44.029Z,40
2017-11-13T07:17:43.784Z,40
2017-11-13T07:18:44.012Z,44
2017-11-13T07:19:43.993Z,56
2017-11-13T07:20:43.657Z,60
2017-11-13T07:21:43.976Z,64
2017-11-13T07:22:43.958Z,64
2017-11-13T07:23:43.636Z,68
2017-11-13T07:24:43.949Z,72
2017-11-13T07:25:43.708Z,76
2017-11-13T07:26:43.933Z,84
2017-11-13T07:27:43.918Z,96
2017-11-13T07:28:43.901Z,108
2017-11-13T07:29:43.346Z,120
2017-11-13T07:30:43.881Z,128
2017-11-13T07:31:43.549Z,136
2017-11-13T07:32:43.869Z,136
2017-11-13T07:33:43.861Z,140
2017-11-13T07:34:43.855Z,152
2017-11-13T07:35:43.519Z,168
2017-11-13T07:36:43.823Z,180
2017-11-13T07:37:43.811Z,188
2017-11-13T07:38:43.807Z,200
2017-11-13T07:39:43.139Z,208
2017-11-13T07:40:43.460Z,228
2017-11-13T07:41:43.781Z,240
2017-11-13T07:42:43.211Z,240
2017-11-13T07:43:43.533Z,240
2017-11-13T07:44:43.420Z,244
2017-11-13T07:45:43.737Z,248
2017-11-13T07:46:43.514Z,260
2017-11-13T07:47:43.708Z,268
2017-11-13T07:48:43.724Z,284
2017-11-13T07:49:43.696Z,292
2017-11-13T07:50:43.694Z,300
2017-11-13T07:51:43.784Z,312
2017-11-13T07:52:43.681Z,320
2017-11-13T07:53:43.669Z,328
2017-11-13T07:54:43.321Z,332
2017-11-13T07:55:43.636Z,332
2017-11-13T07:56:43.631Z,336
2017-11-13T07:57:43.308Z,360
2017-11-13T07:58:43.287Z,404
2017-11-13T07:59:43.593Z,440
2017-11-13T08:00:43.688Z,460
2017-11-13T08:01:43.255Z,464
2017-11-13T08:02:42.916Z,468
2017-11-13T08:03:43.235Z,472
2017-11-13T08:04:43.544Z,460
2017-11-13T08:05:43.207Z,440
2017-11-13T08:06:43.636Z,420
2017-11-13T08:07:43.515Z,412
2017-11-13T08:08:43.502Z,420
2017-11-13T08:09:43.169Z,428
2017-11-13T08:10:43.496Z,444
2017-11-13T08:11:43.609Z,476
2017-11-13T08:12:43.466Z,496
2017-11-13T08:13:43.130Z,512
2017-11-13T08:14:43.446Z,516
2017-11-13T08:15:43.113Z,532
2017-11-13T08:16:43.097Z,548
2017-11-13T08:17:43.119Z,560
2017-11-13T08:18:43.407Z,572
2017-11-13T08:19:43.389Z,584
2017-11-13T08:20:42.738Z,568
2017-11-13T08:21:43.369Z,568
2017-11-13T08:22:43.463Z,576
2017-11-13T08:23:42.708Z,580
2017-11-13T08:24:42.692Z,596
2017-11-13T08:25:43.013Z,608
2017-11-13T08:26:43.322Z,580
2017-11-13T08:27:43.323Z,528
2017-11-13T08:28:42.983Z,484
2017-11-13T08:29:42.974Z,436
2017-11-13T08:30:42.983Z,400
2017-11-13T08:31:43.275Z,380
2017-11-13T08:32:42.937Z,376
2017-11-13T08:33:43.288Z,380
2017-11-13T08:34:43.123Z,384
2017-11-13T08:35:42.914Z,384
2017-11-13T08:36:42.569Z,388
2017-11-13T08:37:43.314Z,404
2017-11-13T08:38:42.879Z,432
2017-11-13T08:39:42.879Z,456
2017-11-13T08:40:42.863Z,488
2017-11-13T08:41:43.173Z,540
2017-11-13T08:42:43.265Z,580
2017-11-13T08:43:43.154Z,524
2017-11-13T08:44:42.839Z,512
2017-11-13T08:45:43.137Z,508
2017-11-13T08:46:42.472Z,500
2017-11-13T08:47:43.313Z,464
2017-11-13T08:48:42.793Z,436
2017-11-13T08:49:43.192Z,432
2017-11-13T08:50:42.860Z,408
2017-11-13T08:51:42.424Z,392
2017-11-13T08:52:43.061Z,364
2017-11-13T08:53:42.729Z,372
2017-11-13T08:54:42.718Z,384
2017-11-13T08:55:42.482Z,376
2017-11-13T08:56:43.024Z,388
2017-11-13T08:57:42.712Z,412
2017-11-13T08:58:42.674Z,440
2017-11-13T08:59:42.669Z,488
2017-11-13T09:00:42.977Z,500
2017-11-13T09:01:42.657Z,520
2017-11-13T09:02:42.643Z,508
2017-11-13T09:03:42.957Z,532
2017-11-13T09:04:42.624Z,488
2017-11-13T09:05:42.938Z,528
2017-11-13T09:06:42.696Z,516
2017-11-13T09:07:42.591Z,520
2017-11-13T09:08:42.262Z,660
2017-11-13T09:09:42.893Z,740
2017-11-13T09:10:42.242Z,780
2017-11-13T09:11:42.222Z,768
2017-11-13T09:12:42.538Z,724
2017-11-13T09:13:42.533Z,804
2017-11-13T09:14:42.842Z,836
2017-11-13T09:15:42.833Z,800
2017-11-13T09:16:42.823Z,752
2017-11-13T09:17:42.821Z,744
2017-11-13T09:18:42.483Z,676
2017-11-13T09:19:42.908Z,640
2017-11-13T09:20:42.904Z,748
2017-11-13T09:21:42.829Z,756
2017-11-13T09:22:42.436Z,756
2017-11-13T09:23:42.760Z,732
2017-11-13T09:24:42.196Z,776
2017-11-13T09:25:42.742Z,820
2017-11-13T09:26:42.511Z,928
2017-11-13T09:27:42.714Z,868
2017-11-13T09:28:42.715Z,736
2017-11-13T09:29:42.368Z,648
2017-11-13T09:30:42.701Z,564
2017-11-13T09:31:42.704Z,580
2017-11-13T09:32:42.663Z,728
2017-11-13T09:33:42.660Z,808
2017-11-13T09:34:42.321Z,824
2017-11-13T09:35:42.634Z,912
2017-11-13T09:36:42.298Z,920
2017-11-13T09:37:42.305Z,856
2017-11-13T09:38:41.964Z,736
2017-11-13T09:39:42.273Z,792
2017-11-13T09:40:42.265Z,848
2017-11-13T09:41:42.253Z,868
2017-11-13T09:42:42.570Z,856
2017-11-13T09:43:42.554Z,800
2017-11-13T09:44:42.646Z,792
2017-11-13T09:45:42.531Z,720
2017-11-13T09:46:41.877Z,588
2017-11-13T09:47:42.527Z,516
2017-11-13T09:48:42.513Z,552
2017-11-13T09:49:42.506Z,540
2017-11-13T09:50:42.487Z,560
2017-11-13T09:51:42.250Z,632
2017-11-13T09:52:42.467Z,708
2017-11-13T09:53:42.131Z,764
2017-11-13T09:54:42.445Z,816
2017-11-13T09:55:42.455Z,856
2017-11-13T09:56:42.527Z,876
2017-11-13T09:57:42.512Z,912
2017-11-13T09:58:42.416Z,924
2017-11-13T09:59:42.408Z,948
2017-11-13T10:00:42.394Z,932
2017-11-13T10:01:42.401Z,932
2017-11-13T10:02:42.042Z,888
2017-11-13T10:03:42.367Z,852
2017-11-13T10:04:42.020Z,840
2017-11-13T10:05:42.449Z,864
2017-11-13T10:06:41.999Z,908
2017-11-13T10:07:42.322Z,908
2017-11-13T10:08:41.988Z,884
2017-11-13T10:09:42.315Z,884
2017-11-13T10:10:41.644Z,872
2017-11-13T10:11:42.285Z,904
2017-11-13T10:12:41.948Z,968
2017-11-13T10:13:42.261Z,1012
2017-11-13T10:14:42.261Z,1024
2017-11-13T10:15:42.238Z,1032
2017-11-13T10:16:42.232Z,1012
2017-11-13T10:17:42.421Z,996
2017-11-13T10:18:42.213Z,964
2017-11-13T10:19:42.208Z,940
2017-11-13T10:20:41.863Z,896
2017-11-13T10:21:41.526Z,816
2017-11-13T10:22:42.182Z,776
2017-11-13T10:23:41.877Z,720
2017-11-13T10:24:41.820Z,724
2017-11-13T10:25:41.822Z,824
2017-11-13T10:26:42.132Z,860
2017-11-13T10:27:42.115Z,860
2017-11-13T10:28:42.210Z,892
2017-11-13T10:29:41.808Z,900
2017-11-13T10:30:42.094Z,952
2017-11-13T10:31:41.855Z,996
2017-11-13T10:32:41.741Z,952
2017-11-13T10:33:41.734Z,892
2017-11-13T10:34:42.049Z,796
2017-11-13T10:35:42.136Z,780
2017-11-13T10:36:41.710Z,816
2017-11-13T10:37:42.020Z,936
2017-11-13T10:38:42.010Z,980
2017-11-13T10:39:42.000Z,1300
2017-11-13T10:40:41.992Z,1288
2017-11-13T10:41:42.008Z,1280
2017-11-13T10:42:41.982Z,1224
2017-11-13T10:43:41.647Z,1268
2017-11-13T10:44:42.051Z,1144
2017-11-13T10:45:41.942Z,1068
2017-11-13T10:46:41.613Z,1056
2017-11-13T10:47:41.936Z,956
2017-11-13T10:48:42.020Z,940
2017-11-13T10:49:41.911Z,1076
2017-11-13T10:50:41.894Z,976
2017-11-13T10:51:41.881Z,868
2017-11-13T10:52:41.884Z,924
2017-11-13T10:53:41.218Z,996
2017-11-13T10:54:41.536Z,1044
2017-11-13T10:55:41.846Z,1076
2017-11-13T10:56:41.831Z,944
2017-11-13T10:57:41.599Z,960
2017-11-13T10:58:41.821Z,924
2017-11-13T10:59:41.812Z,920
2017-11-13T11:00:41.802Z,920
2017-11-13T11:01:41.471Z,848
2017-11-13T11:02:41.558Z,720
2017-11-13T11:03:41.550Z,704
2017-11-13T11:04:41.430Z,696
2017-11-13T11:05:41.751Z,632
2017-11-13T11:06:41.738Z,628
2017-11-13T11:07:41.730Z,672
2017-11-13T11:08:41.824Z,800
2017-11-13T11:09:41.388Z,932
2017-11-13T11:10:41.394Z,988
2017-11-13T11:11:41.684Z,980
2017-11-13T11:12:41.453Z,896
2017-11-13T11:13:41.687Z,896
2017-11-13T11:14:41.663Z,944
2017-11-13T11:15:41.325Z,996
2017-11-13T11:16:41.659Z,940
2017-11-13T11:17:41.309Z,896
2017-11-13T11:18:41.620Z,864
2017-11-13T11:19:41.390Z,904
2017-11-13T11:20:41.635Z,948
2017-11-13T11:21:40.941Z,976
2017-11-13T11:22:41.302Z,976
2017-11-13T11:23:41.241Z,980
2017-11-13T11:24:41.882Z,1004
2017-11-13T11:25:41.222Z,996
2017-11-13T11:26:41.568Z,944
2017-11-13T11:27:41.215Z,872
2017-11-13T11:28:41.522Z,848
2017-11-13T11:29:40.637Z,900
2017-11-13T11:30:41.500Z,1008
2017-11-13T11:31:40.842Z,1016
2017-11-13T11:32:41.478Z,940
2017-11-13T11:33:41.145Z,824
2017-11-13T11:34:41.247Z,688
2017-11-13T11:35:41.234Z,588
2017-11-13T11:36:40.791Z,564
2017-11-13T11:37:41.105Z,600
2017-11-13T11:38:41.421Z,704
2017-11-13T11:39:41.513Z,784
2017-11-13T11:40:41.505Z,824
2017-11-13T11:41:41.505Z,864
2017-11-13T11:42:40.410Z,880
2017-11-13T11:43:41.381Z,884
2017-11-13T11:44:41.370Z,920
2017-11-13T11:45:40.803Z,944
2017-11-13T11:46:41.343Z,928
2017-11-13T11:47:41.010Z,884
2017-11-13T11:48:41.003Z,852
2017-11-13T11:49:41.309Z,804
2017-11-13T11:50:41.315Z,776
2017-11-13T11:51:41.297Z,768
2017-11-13T11:52:40.960Z,788
2017-11-13T11:53:41.049Z,832
2017-11-13T11:54:41.264Z,876
2017-11-13T11:55:41.029Z,896
2017-11-13T11:56:41.242Z,912
2017-11-13T11:57:41.375Z,1004
2017-11-13T11:58:40.901Z,1084
2017-11-13T11:59:41.218Z,1300
2017-11-13T12:00:40.882Z,1500
2017-11-13T12:01:40.542Z,1460
2017-11-13T12:02:40.961Z,1268
2017-11-13T12:03:41.173Z,1052
2017-11-13T12:04:40.842Z,968
2017-11-13T12:05:40.834Z,964
2017-11-13T12:06:40.819Z,828
2017-11-13T12:07:41.138Z,704
2017-11-13T12:08:40.802Z,660
2017-11-13T12:09:41.114Z,596
2017-11-13T12:10:41.101Z,536
2017-11-13T12:11:40.771Z,496
2017-11-13T12:12:40.763Z,548
2017-11-13T12:13:40.435Z,592
2017-11-13T12:14:41.170Z,600
2017-11-13T12:15:40.735Z,620
2017-11-13T12:16:40.724Z,656
2017-11-13T12:17:40.712Z,708
2017-11-13T12:18:40.807Z,788
2017-11-13T12:19:40.698Z,876
2017-11-13T12:20:41.016Z,940
2017-11-13T12:21:41.000Z,960
2017-11-13T12:22:40.998Z,976
2017-11-13T12:23:40.760Z,944
2017-11-13T12:24:40.988Z,884
2017-11-13T12:25:40.960Z,872
2017-11-13T12:26:40.958Z,892
2017-11-13T12:27:40.940Z,920
2017-11-13T12:28:40.613Z,956
2017-11-13T12:29:40.921Z,1044
2017-11-13T12:30:40.591Z,1064
2017-11-13T12:31:41.007Z,1008
2017-11-13T12:32:40.245Z,940
2017-11-13T12:33:40.880Z,836
2017-11-13T12:34:39.899Z,736
2017-11-13T12:35:40.872Z,772
2017-11-13T12:36:40.987Z,824
2017-11-13T12:37:40.527Z,904
2017-11-13T12:38:40.835Z,988
2017-11-13T12:39:40.837Z,1008
2017-11-13T12:40:40.814Z,984
2017-11-13T12:41:40.482Z,972
2017-11-13T12:42:40.795Z,904
2017-11-13T12:43:40.827Z,828
2017-11-13T12:44:40.776Z,808
2017-11-13T12:45:40.771Z,780
2017-11-13T12:46:40.762Z,700
2017-11-13T12:47:40.433Z,664
2017-11-13T12:48:40.520Z,672
2017-11-13T12:49:40.422Z,604
2017-11-13T12:50:40.409Z,456
2017-11-13T12:51:40.708Z,388
2017-11-13T12:52:40.383Z,400
2017-11-13T12:53:40.364Z,340
2017-11-13T12:54:40.688Z,320
2017-11-13T12:55:40.346Z,304
2017-11-13T12:56:40.438Z,284
2017-11-13T12:57:40.650Z,280
2017-11-13T12:58:40.647Z,292
2017-11-13T12:59:40.319Z,360
2017-11-13T13:00:40.636Z,468
2017-11-13T13:01:40.712Z,564
2017-11-13T13:02:40.620Z,728
2017-11-13T13:03:40.593Z,820
2017-11-13T13:04:40.583Z,892
2017-11-13T13:05:40.574Z,896
2017-11-13T13:06:40.582Z,788
2017-11-13T13:07:40.556Z,784
2017-11-13T13:08:40.663Z,832
2017-11-13T13:09:40.221Z,844
2017-11-13T13:10:40.531Z,844
2017-11-13T13:11:40.199Z,872
2017-11-13T13:12:40.179Z,888
2017-11-13T13:13:39.961Z,924
2017-11-13T13:14:40.490Z,856
2017-11-13T13:15:40.482Z,876
2017-11-13T13:16:40.573Z,884
2017-11-13T13:17:39.816Z,836
2017-11-13T13:18:40.140Z,724
2017-11-13T13:19:40.553Z,660
2017-11-13T13:20:40.441Z,632
2017-11-13T13:21:40.423Z,604
2017-11-13T13:22:40.407Z,556
2017-11-13T13:23:40.086Z,508
2017-11-13T13:24:40.400Z,504
2017-11-13T13:25:40.385Z,532
2017-11-13T13:26:40.049Z,532
2017-11-13T13:27:40.376Z,560
2017-11-13T13:28:40.363Z,572
2017-11-13T13:29:40.022Z,572
2017-11-13T13:30:39.360Z,596
2017-11-13T13:31:40.446Z,632
2017-11-13T13:32:39.665Z,624
2017-11-13T13:33:40.310Z,576
2017-11-13T13:34:40.402Z,556
2017-11-13T13:35:39.965Z,552
2017-11-13T13:36:39.959Z,580
2017-11-13T13:37:39.948Z,804
2017-11-13T13:38:40.262Z,792
2017-11-13T13:39:39.955Z,584
2017-11-13T13:40:39.587Z,560
2017-11-13T13:41:40.234Z,592
2017-11-13T13:42:40.230Z,676
2017-11-13T13:43:39.561Z,756
2017-11-13T13:44:40.206Z,876
2017-11-13T13:45:39.871Z,932
2017-11-13T13:46:40.184Z,960
2017-11-13T13:47:39.852Z,1060
2017-11-13T13:48:40.159Z,1212
2017-11-13T13:49:40.153Z,1220
2017-11-13T13:50:40.142Z,1192
2017-11-13T13:51:40.140Z,952
2017-11-13T13:52:39.809Z,924
2017-11-13T13:53:40.119Z,936
2017-11-13T13:54:39.787Z,892
2017-11-13T13:55:39.770Z,856
2017-11-13T13:56:40.087Z,888
2017-11-13T13:57:40.080Z,964
2017-11-13T13:58:40.059Z,944
2017-11-13T13:59:39.730Z,912
2017-11-13T14:00:39.754Z,856
2017-11-13T14:01:40.037Z,752
2017-11-13T14:02:39.377Z,608
2017-11-13T14:03:39.693Z,508
2017-11-13T14:04:40.008Z,440
2017-11-13T14:05:39.687Z,400
2017-11-13T14:06:39.694Z,384
2017-11-13T14:07:39.329Z,384
2017-11-13T14:08:39.649Z,388
2017-11-13T14:09:39.733Z,412
2017-11-13T14:10:39.956Z,396
2017-11-13T14:11:39.617Z,392
2017-11-13T14:12:38.961Z,400
2017-11-13T14:13:39.950Z,416